createdAt,value
2019-04-23T00:01:47.127Z,15.10
2019-04-23T00:04:21.409Z,15.10
2019-04-23T00:07:10.709Z,15.00
2019-04-23T00:09:32.901Z,15.00
2019-04-23T00:11:54.218Z,15.00
2019-04-23T00:16:57.770Z,15.00
2019-04-23T00:19:27.586Z,14.90
2019-04-23T00:21:59.992Z,14.90
2019-04-23T00:27:29.126Z,14.90
2019-04-23T00:29:56.181Z,14.90
2019-04-23T00:32:28.745Z,14.90
2019-04-23T00:39:56.712Z,14.70
2019-04-23T00:44:58.249Z,14.70
2019-04-23T00:47:46.595Z,14.70
2019-04-23T00:50:16.090Z,14.60
2019-04-23T00:52:32.146Z,14.50
2019-04-23T00:57:35.888Z,14.40
2019-04-23T01:00:10.698Z,14.40
2019-04-23T01:02:43.883Z,14.40
2019-04-23T01:05:11.747Z,14.30
2019-04-23T01:07:40.294Z,14.30
2019-04-23T01:10:18.382Z,14.30
2019-04-23T01:12:46.444Z,14.20
2019-04-23T01:15:24.203Z,14.20
2019-04-23T01:17:57.767Z,14.20
2019-04-23T01:22:36.074Z,14.10
2019-04-23T01:25:24.763Z,14.10
2019-04-23T01:28:15.948Z,14.10
2019-04-23T01:30:52.761Z,14.10
2019-04-23T01:33:22.851Z,14.10
2019-04-23T01:35:52.971Z,13.90
2019-04-23T01:38:21.777Z,13.90
2019-04-23T01:40:47.427Z,13.90
2019-04-23T01:43:38.196Z,13.80
2019-04-23T01:45:49.125Z,13.80
2019-04-23T01:48:17.834Z,13.80
2019-04-23T01:50:54.585Z,13.90
2019-04-23T01:53:27.302Z,13.90
2019-04-23T02:01:00.738Z,13.80
2019-04-23T02:03:29.434Z,13.70
2019-04-23T02:06:00.007Z,13.70
2019-04-23T02:08:28.008Z,13.70
2019-04-23T02:16:00.056Z,13.60
2019-04-23T02:18:52.608Z,13.60
2019-04-23T02:21:07.580Z,13.60
2019-04-23T02:23:57.344Z,13.60
2019-04-23T02:26:23.301Z,13.60
2019-04-23T02:28:54.637Z,13.70
2019-04-23T02:36:29.228Z,13.60
2019-04-23T02:41:35.229Z,13.60
2019-04-23T02:44:04.978Z,13.50
2019-04-23T02:46:22.741Z,13.50
2019-04-23T02:49:12.567Z,13.50
2019-04-23T02:51:37.180Z,13.50
2019-04-23T02:59:11.001Z,13.50
2019-04-23T03:01:59.569Z,13.40
2019-04-23T03:04:17.519Z,13.40
2019-04-23T03:09:12.879Z,13.40
2019-04-23T03:11:40.968Z,13.40
2019-04-23T03:14:15.435Z,13.30
2019-04-23T03:19:35.977Z,13.30
2019-04-23T03:22:01.497Z,13.20
2019-04-23T03:24:59.828Z,13.20
2019-04-23T03:29:49.790Z,13.20
2019-04-23T03:33:08.570Z,13.20
2019-04-23T03:40:02.116Z,13.10
2019-04-23T03:42:20.000Z,13.10
2019-04-23T03:47:24.783Z,13.20
2019-04-23T03:49:56.165Z,13.20
2019-04-23T03:52:27.673Z,13.20
2019-04-23T03:54:50.240Z,13.10
2019-04-23T03:57:24.699Z,13.20
2019-04-23T04:00:13.107Z,13.10
2019-04-23T04:04:49.809Z,13.10
2019-04-23T04:09:53.882Z,13.20
2019-04-23T04:17:26.777Z,12.90
2019-04-23T04:20:13.559Z,12.90
2019-04-23T04:30:10.564Z,12.70
2019-04-23T04:32:36.508Z,12.70
2019-04-23T04:42:44.669Z,12.60
2019-04-23T04:45:20.311Z,12.60
2019-04-23T04:47:44.057Z,12.70
2019-04-23T04:50:25.961Z,12.80
2019-04-23T04:52:42.039Z,12.80
2019-04-23T04:55:13.957Z,12.90
2019-04-23T04:57:52.325Z,13.00
2019-04-23T05:03:01.173Z,13.30
2019-04-23T05:10:25.185Z,13.50
2019-04-23T05:12:52.188Z,13.70
2019-04-23T05:15:16.883Z,13.70
2019-04-23T05:20:46.393Z,14.20
2019-04-23T05:23:18.366Z,14.40
2019-04-23T05:25:38.132Z,14.50
2019-04-23T05:30:50.118Z,14.90
2019-04-23T05:33:12.931Z,14.90
2019-04-23T05:40:53.723Z,15.30
2019-04-23T05:43:11.846Z,15.20
2019-04-23T05:45:53.144Z,15.10
2019-04-23T05:48:18.959Z,15.10
2019-04-23T05:53:18.414Z,15.10
2019-04-23T05:58:26.738Z,14.80
2019-04-23T06:01:10.868Z,14.60
2019-04-23T06:03:24.886Z,14.60
2019-04-23T06:06:11.288Z,14.60
2019-04-23T06:08:33.652Z,14.60
2019-04-23T06:11:05.652Z,14.80
2019-04-23T06:13:35.927Z,15.00
2019-04-23T06:15:58.176Z,15.30
2019-04-23T06:18:38.900Z,15.60
2019-04-23T06:21:02.791Z,16.20
2019-04-23T06:23:41.757Z,16.60
2019-04-23T06:26:22.414Z,16.70
2019-04-23T06:28:33.605Z,16.70
2019-04-23T06:31:06.331Z,17.00
2019-04-23T06:38:46.986Z,17.60
2019-04-23T06:41:15.645Z,18.00
2019-04-23T06:43:54.681Z,17.90
2019-04-23T06:46:20.836Z,18.30
2019-04-23T06:48:47.003Z,18.80
2019-04-23T06:51:21.694Z,19.30
2019-04-23T06:53:43.498Z,19.30
2019-04-23T06:56:28.416Z,19.30
2019-04-23T06:58:48.867Z,19.70
2019-04-23T07:01:19.135Z,20.10
2019-04-23T07:06:38.440Z,19.70
2019-04-23T07:09:12.113Z,19.90
2019-04-23T07:16:28.270Z,21.20
2019-04-23T07:19:04.899Z,20.70
2019-04-23T07:21:42.156Z,20.00
2019-04-23T07:29:01.495Z,19.50
2019-04-23T07:31:35.093Z,19.60
2019-04-23T07:34:05.475Z,19.40
2019-04-23T07:36:38.247Z,19.20
2019-04-23T07:39:25.062Z,18.90
2019-04-23T07:42:20.955Z,18.60
2019-04-23T07:45:10.451Z,18.80
2019-04-23T07:48:08.073Z,18.70
2019-04-23T07:53:17.070Z,19.40
2019-04-23T07:55:41.127Z,19.90
2019-04-23T07:58:14.395Z,20.20
2019-04-23T08:03:17.472Z,20.30
2019-04-23T08:05:39.588Z,19.90
2019-04-23T08:08:07.247Z,19.50
2019-04-23T08:10:47.147Z,18.90
2019-04-23T08:13:16.302Z,18.70
2019-04-23T08:18:23.325Z,18.40
2019-04-23T08:20:49.371Z,18.60
2019-04-23T08:23:34.510Z,18.60
2019-04-23T08:26:52.063Z,18.50
2019-04-23T08:29:12.898Z,18.10
2019-04-23T08:31:38.081Z,18.00
2019-04-23T08:34:16.555Z,18.10
2019-04-23T08:39:05.523Z,18.60
2019-04-23T08:41:45.728Z,18.80
2019-04-23T08:44:21.623Z,18.70
2019-04-23T08:49:29.681Z,19.30
2019-04-23T08:52:07.168Z,19.40
2019-04-23T08:54:42.893Z,19.40
2019-04-23T08:57:02.633Z,19.20
2019-04-23T09:02:18.921Z,19.30
2019-04-23T09:04:40.051Z,19.30
2019-04-23T09:07:11.407Z,19.40
2019-04-23T09:12:08.810Z,19.90
2019-04-23T09:14:42.117Z,19.80
2019-04-23T09:17:13.268Z,19.50
2019-04-23T09:19:56.381Z,19.20
2019-04-23T09:22:22.347Z,19.10
2019-04-23T09:24:47.111Z,18.90
2019-04-23T09:29:58.905Z,18.80
2019-04-23T09:32:28.412Z,19.00
2019-04-23T09:35:31.304Z,19.10
2019-04-23T09:38:27.677Z,19.10
2019-04-23T09:41:37.254Z,19.50
2019-04-23T09:44:03.068Z,19.70
2019-04-23T09:46:49.522Z,20.10
2019-04-23T09:51:45.064Z,20.30
2019-04-23T09:54:23.632Z,20.70
2019-04-23T09:56:50.992Z,21.10
2019-04-23T09:59:26.718Z,21.50
2019-04-23T10:01:40.889Z,22.30
2019-04-23T10:04:04.131Z,23.00
2019-04-23T10:06:28.309Z,23.20
2019-04-23T10:08:58.164Z,23.10
2019-04-23T10:11:26.184Z,23.00
2019-04-23T10:13:56.649Z,22.60
2019-04-23T10:16:30.108Z,22.40
2019-04-23T10:18:57.374Z,22.30
2019-04-23T10:21:26.748Z,21.90
2019-04-23T10:23:57.116Z,22.20
2019-04-23T10:26:28.087Z,22.30
2019-04-23T10:29:05.405Z,22.80
2019-04-23T10:31:35.606Z,23.20
2019-04-23T10:34:06.384Z,23.00
2019-04-23T10:36:37.910Z,22.70
2019-04-23T10:39:15.588Z,22.30
2019-04-23T10:41:42.603Z,22.20
2019-04-23T10:44:23.335Z,22.30
2019-04-23T10:47:43.500Z,22.10
2019-04-23T10:50:35.841Z,22.00
2019-04-23T10:53:10.224Z,21.90
2019-04-23T10:55:34.979Z,22.00
2019-04-23T10:58:04.191Z,22.30
2019-04-23T11:03:16.383Z,22.00
2019-04-23T11:05:47.497Z,21.90
2019-04-23T11:08:08.700Z,21.80
2019-04-23T11:10:34.386Z,21.80
2019-04-23T11:13:31.416Z,21.80
2019-04-23T11:16:27.592Z,21.90
2019-04-23T11:18:38.457Z,21.90
2019-04-23T11:21:05.243Z,21.70
2019-04-23T11:26:24.708Z,22.10
2019-04-23T11:28:45.021Z,21.70
2019-04-23T11:31:32.048Z,21.50
2019-04-23T11:41:34.608Z,21.20
2019-04-23T11:43:53.709Z,21.10
2019-04-23T11:46:45.674Z,21.10
2019-04-23T11:49:20.333Z,21.00
2019-04-23T11:54:01.802Z,20.40
2019-04-23T11:59:07.871Z,20.40
2019-04-23T12:02:00.795Z,20.50
2019-04-23T12:05:01.019Z,20.70
2019-04-23T12:07:33.923Z,20.60
2019-04-23T12:10:20.020Z,20.80
2019-04-23T12:12:42.926Z,21.00
2019-04-23T12:15:23.807Z,21.30
2019-04-23T12:17:47.118Z,21.50
2019-04-23T12:22:57.491Z,21.80
2019-04-23T12:27:59.586Z,21.50
2019-04-23T12:30:25.176Z,21.30
2019-04-23T12:37:55.185Z,21.20
2019-04-23T12:40:24.919Z,21.40
2019-04-23T12:43:02.413Z,21.30
2019-04-23T12:50:44.906Z,20.90
2019-04-23T12:55:36.233Z,20.80
2019-04-23T13:00:37.061Z,21.00
2019-04-23T13:05:34.457Z,21.00
2019-04-23T13:08:30.413Z,21.10
2019-04-23T13:13:25.695Z,21.00
2019-04-23T13:18:17.602Z,21.20
2019-04-23T13:20:46.780Z,21.20
2019-04-23T13:25:57.026Z,21.20
2019-04-23T13:28:35.351Z,21.10
2019-04-23T13:31:07.926Z,21.10
2019-04-23T13:33:38.949Z,21.10
2019-04-23T13:38:36.392Z,21.10
2019-04-23T13:41:08.428Z,21.30
2019-04-23T13:48:30.062Z,21.40
2019-04-23T13:51:19.900Z,21.40
2019-04-23T13:56:15.197Z,21.50
2019-04-23T13:58:48.829Z,21.50
2019-04-23T14:01:25.961Z,21.40
2019-04-23T14:03:45.227Z,21.40
2019-04-23T14:13:55.220Z,21.20
2019-04-23T14:24:08.277Z,21.20
2019-04-23T14:26:34.873Z,21.20
2019-04-23T14:28:55.398Z,21.20
2019-04-23T14:31:24.019Z,21.20
2019-04-23T14:39:18.315Z,21.10
2019-04-23T14:41:27.270Z,21.10
2019-04-23T14:44:19.027Z,21.10
2019-04-23T14:46:50.204Z,21.10
2019-04-23T14:49:11.216Z,21.10
2019-04-23T14:52:00.156Z,21.10
2019-04-23T14:54:23.558Z,21.10
2019-04-23T14:59:29.148Z,21.00
2019-04-23T15:02:22.893Z,21.00
2019-04-23T15:04:56.086Z,21.00
2019-04-23T15:10:20.510Z,20.80
2019-04-23T15:15:25.153Z,20.80
2019-04-23T15:18:04.331Z,20.90
2019-04-23T15:26:41.137Z,20.90
2019-04-23T15:28:07.552Z,20.80
2019-04-23T15:30:59.245Z,20.80
2019-04-23T15:33:45.119Z,20.90
2019-04-23T15:41:29.520Z,20.90
2019-04-23T15:46:47.132Z,21.00
2019-04-23T15:52:07.366Z,21.00
2019-04-23T15:54:55.295Z,21.00
2019-04-23T15:57:53.999Z,21.00
2019-04-23T16:00:13.295Z,21.10
2019-04-23T16:02:31.044Z,21.00
2019-04-23T16:05:09.405Z,21.10
2019-04-23T16:10:44.902Z,21.10
2019-04-23T16:13:40.358Z,21.10
2019-04-23T16:19:02.127Z,21.10
2019-04-23T16:24:13.605Z,21.20
2019-04-23T16:27:01.035Z,21.20
2019-04-23T16:32:26.363Z,21.10
2019-04-23T16:35:06.750Z,21.10
2019-04-23T16:37:49.229Z,21.20
2019-04-23T16:40:57.323Z,21.10
2019-04-23T16:43:13.213Z,21.10
2019-04-23T16:48:53.238Z,21.10
2019-04-23T16:56:30.624Z,21.10
2019-04-23T16:59:06.989Z,21.10
2019-04-23T17:04:19.687Z,21.10
2019-04-23T17:06:58.203Z,21.10
2019-04-23T17:12:16.270Z,21.00
2019-04-23T17:15:10.903Z,21.00
2019-04-23T17:17:57.503Z,21.00
2019-04-23T17:20:40.940Z,21.00
2019-04-23T17:28:20.141Z,20.90
2019-04-23T17:31:27.994Z,21.00
2019-04-23T17:33:54.634Z,20.90
2019-04-23T17:47:14.175Z,20.80
2019-04-23T17:49:42.214Z,20.80
2019-04-23T17:52:33.554Z,20.70
2019-04-23T17:55:01.746Z,20.70
2019-04-23T17:57:44.368Z,20.70
2019-04-23T18:00:36.012Z,20.70
2019-04-23T18:03:16.080Z,20.60
2019-04-23T18:08:43.746Z,20.60
2019-04-23T18:11:31.289Z,20.60
2019-04-23T18:16:40.894Z,20.50
2019-04-23T18:19:16.586Z,20.40
2019-04-23T18:22:24.655Z,20.40
2019-04-23T18:25:37.576Z,20.40
2019-04-23T18:28:08.935Z,20.30
2019-04-23T18:34:03.566Z,20.30
2019-04-23T18:36:29.708Z,20.20
2019-04-23T18:39:12.390Z,20.20
2019-04-23T18:46:49.141Z,20.00
2019-04-23T18:49:42.547Z,20.00
2019-04-23T18:57:19.124Z,19.90
2019-04-23T19:00:24.869Z,19.90
2019-04-23T19:03:29.455Z,19.80
2019-04-23T19:06:29.802Z,19.80
2019-04-23T19:09:32.242Z,19.70
2019-04-23T19:12:28.210Z,19.70
2019-04-23T19:15:17.032Z,19.60
2019-04-23T19:20:41.764Z,19.50
2019-04-23T19:28:14.308Z,19.50
2019-04-23T19:33:47.865Z,19.50
2019-04-23T19:36:13.790Z,19.40
2019-04-23T19:38:54.274Z,19.40
2019-04-23T19:41:25.498Z,19.40
2019-04-23T19:44:10.384Z,19.30
2019-04-23T19:49:26.929Z,19.20
2019-04-23T19:52:08.672Z,19.20
2019-04-23T19:54:58.856Z,19.10
2019-04-23T19:57:19.872Z,19.10
2019-04-23T20:00:04.336Z,19.10
2019-04-23T20:05:24.198Z,19.00
2019-04-23T20:13:19.695Z,18.90
2019-04-23T20:16:05.639Z,18.90
2019-04-23T20:24:04.860Z,18.80
2019-04-23T20:26:41.386Z,18.70
2019-04-23T20:29:50.989Z,18.60
2019-04-23T20:35:07.004Z,18.60
2019-04-23T20:40:40.111Z,18.50
2019-04-23T20:43:14.693Z,18.50
2019-04-23T20:45:48.497Z,18.40
2019-04-23T20:48:37.202Z,18.40
2019-04-23T20:51:04.275Z,18.40
2019-04-23T20:53:40.103Z,18.40
2019-04-23T20:56:30.133Z,18.40
2019-04-23T21:04:28.161Z,18.30
2019-04-23T21:07:03.222Z,18.30
2019-04-23T21:10:00.266Z,18.20
2019-04-23T21:12:51.159Z,18.30
2019-04-23T21:15:28.320Z,18.30
2019-04-23T21:18:08.309Z,18.10
2019-04-23T21:20:40.096Z,18.00
2019-04-23T21:31:30.643Z,17.90
2019-04-23T21:34:10.230Z,17.80
2019-04-23T21:37:14.260Z,17.80
2019-04-23T21:43:02.824Z,17.80
2019-04-23T21:45:50.089Z,17.70
2019-04-23T21:48:28.637Z,17.70
2019-04-23T21:53:38.574Z,17.70
2019-04-23T21:56:16.746Z,17.70
2019-04-23T21:58:57.618Z,17.60
2019-04-23T22:04:39.828Z,17.50
2019-04-23T22:09:36.047Z,17.40
2019-04-23T22:14:38.150Z,17.40
2019-04-23T22:17:15.056Z,17.40
2019-04-23T22:20:05.976Z,17.40
2019-04-23T22:22:51.160Z,17.40
2019-04-23T22:25:27.745Z,17.40
2019-04-23T22:28:13.851Z,17.40
2019-04-23T22:30:54.704Z,17.40
2019-04-23T22:33:18.102Z,17.40
2019-04-23T22:36:01.676Z,17.40
2019-04-23T22:38:25.856Z,17.50
2019-04-23T22:41:10.568Z,17.50
2019-04-23T22:52:32.243Z,17.40
2019-04-23T22:55:02.197Z,17.40
2019-04-23T22:57:58.725Z,17.40
2019-04-23T23:00:16.676Z,17.40
2019-04-23T23:03:11.729Z,17.30
2019-04-23T23:08:41.003Z,17.30
2019-04-23T23:11:13.992Z,17.30
2019-04-23T23:19:28.272Z,17.10
2019-04-23T23:22:02.106Z,17.10
2019-04-23T23:24:41.157Z,17.10
2019-04-23T23:27:21.427Z,17.10
2019-04-23T23:30:05.082Z,17.10
2019-04-23T23:35:14.944Z,17.00
2019-04-23T23:37:42.113Z,17.00
2019-04-23T23:40:30.303Z,17.10
2019-04-23T23:48:06.642Z,17.10
2019-04-23T23:50:51.525Z,17.10
2019-04-23T23:53:24.925Z,17.10
